Time;durP1;ratioP1;P1;durP2;ratioP2;P2;SDS_P1;SDS_P2;PMS_P1;PMS_P2;Temp;Humidity;BMP_temperature;BMP_pressure;BME280_temperature;BME280_humidity;BME280_pressure;Samples;Min_cycle;Max_cycle;Signal;HPM_P1;HPM_P2
2023/05/11 00:01:23;;;;;;;4.83;3.00;;;9.20;98.50;;;;;;5015538;28;20224;-80
2023/05/11 00:03:50;;;;;;;4.83;2.90;;;9.20;98.20;;;;;;5015495;28;20208;-84
2023/05/11 00:06:18;;;;;;;6.13;3.00;;;9.20;98.40;;;;;;5017032;28;20682;-81
2023/05/11 00:08:45;;;;;;;6.37;3.27;;;9.20;98.80;;;;;;5016862;28;20200;-84
2023/05/11 00:11:11;;;;;;;6.47;3.00;;;9.20;98.80;;;;;;4999583;28;20204;-83
2023/05/11 00:13:38;;;;;;;6.03;3.17;;;9.20;99.30;;;;;;5021579;28;20206;-83
2023/05/11 00:16:05;;;;;;;6.87;3.30;;;9.00;99.80;;;;;;5016814;28;20198;-83
2023/05/11 00:18:32;;;;;;;7.10;3.67;;;9.10;99.90;;;;;;5017193;28;20772;-82
2023/05/11 00:20:59;;;;;;;5.90;3.17;;;8.90;99.90;;;;;;5015641;28;20250;-82
2023/05/11 00:23:27;;;;;;;6.10;3.20;;;8.90;99.90;;;;;;5017456;28;20630;-82
2023/05/11 00:25:54;;;;;;;8.80;3.27;;;8.90;99.90;;;;;;5014712;28;20196;-82
2023/05/11 00:28:22;;;;;;;5.60;3.60;;;8.90;99.90;;;;;;5019330;28;20200;-83
2023/05/11 00:30:49;;;;;;;6.13;3.40;;;8.80;99.90;;;;;;5014497;28;20574;-79
2023/05/11 00:33:17;;;;;;;6.63;3.03;;;8.80;99.90;;;;;;5016065;28;20204;-83
2023/05/11 00:35:44;;;;;;;5.50;2.90;;;8.70;99.90;;;;;;5018563;28;20200;-83
2023/05/11 00:38:11;;;;;;;6.13;3.20;;;8.70;99.90;;;;;;5015019;28;20688;-82
2023/05/11 00:40:38;;;;;;;5.47;3.13;;;8.60;99.90;;;;;;5016884;28;20271;-84
2023/05/11 00:43:05;;;;;;;4.97;2.97;;;8.60;99.90;;;;;;5016612;28;20207;-82
2023/05/11 00:45:33;;;;;;;12.17;4.27;;;8.60;99.90;;;;;;5007525;28;20299;-80
2023/05/11 00:48:00;;;;;;;4.83;3.17;;;8.50;99.90;;;;;;4998957;28;20299;-83
2023/05/11 00:50:28;;;;;;;5.60;3.10;;;8.50;99.90;;;;;;4997994;28;20234;-81
2023/05/11 00:52:56;;;;;;;6.97;2.80;;;8.40;99.90;;;;;;5021512;28;20192;-79
2023/05/11 00:55:23;;;;;;;5.33;3.20;;;8.40;99.90;;;;;;5000649;28;20219;-81
2023/05/11 00:57:50;;;;;;;5.73;2.97;;;8.40;99.90;;;;;;5013592;28;20243;-78
2023/05/11 01:00:17;;;;;;;5.20;2.80;;;8.50;99.90;;;;;;5015082;28;20200;-81
2023/05/11 01:02:44;;;;;;;5.70;2.90;;;8.40;99.90;;;;;;5016271;28;20202;-77
2023/05/11 01:05:12;;;;;;;5.00;2.80;;;8.40;99.90;;;;;;5013352;28;20354;-82
2023/05/11 01:07:48;;;;;;;5.63;3.20;;;8.40;99.90;;;;;;5015132;28;20200;-78
2023/05/11 01:10:32;;;;;;;6.10;3.20;;;8.30;99.90;;;;;;5018161;28;20200;-78
2023/05/11 01:13:26;;;;;;;5.17;3.03;;;8.20;99.90;;;;;;5013520;28;20235;-81
2023/05/11 01:15:58;;;;;;;5.47;2.90;;;8.20;99.90;;;;;;5013072;28;20207;-83
2023/05/11 01:18:32;;;;;;;4.40;3.13;;;8.20;99.90;;;;;;5018404;28;20626;-83
2023/05/11 01:21:04;;;;;;;5.17;3.17;;;8.20;99.90;;;;;;5013843;28;20196;-82
2023/05/11 01:23:53;;;;;;;7.07;3.13;;;8.20;99.90;;;;;;5014159;28;20211;-81
2023/05/11 01:26:24;;;;;;;4.97;2.80;;;8.20;99.90;;;;;;5013289;28;20200;-83
2023/05/11 01:29:33;;;;;;;5.00;3.00;;;8.20;99.90;;;;;;4998184;28;20291;-81
2023/05/11 01:32:07;;;;;;;5.00;3.00;;;8.20;99.90;;;;;;4938527;29;20206;-80
2023/05/11 01:34:39;;;;;;;5.87;3.00;;;8.20;99.90;;;;;;4957226;29;20206;-81
2023/05/11 01:37:18;;;;;;;4.97;2.97;;;8.20;99.90;;;;;;4938874;29;20206;-82
2023/05/11 01:39:53;;;;;;;6.23;3.20;;;8.10;99.90;;;;;;4954665;29;20308;-82
2023/05/11 01:42:25;;;;;;;6.87;2.80;;;8.10;99.90;;;;;;4954100;28;20241;-83
2023/05/11 01:44:54;;;;;;;7.87;2.90;;;8.10;99.90;;;;;;4954396;29;20289;-81
2023/05/11 01:47:23;;;;;;;4.17;2.83;;;8.00;99.90;;;;;;4937953;29;20202;-83
2023/05/11 01:49:53;;;;;;;4.97;3.10;;;8.00;99.90;;;;;;4938669;29;20252;-81
2023/05/11 01:52:24;;;;;;;4.43;3.03;;;7.90;99.90;;;;;;4937833;29;20605;-84
2023/05/11 01:54:53;;;;;;;4.73;2.93;;;7.90;99.90;;;;;;4928983;29;20234;-84
2023/05/11 01:57:21;;;;;;;6.07;3.20;;;7.90;99.90;;;;;;4942630;29;20289;-84
2023/05/11 01:59:50;;;;;;;4.40;2.93;;;7.90;99.90;;;;;;4953558;29;20222;-82
2023/05/11 02:02:18;;;;;;;4.17;3.00;;;7.80;99.90;;;;;;4940854;29;20241;-80
2023/05/11 02:04:46;;;;;;;5.50;3.27;;;7.80;99.90;;;;;;4955178;29;20206;-82
2023/05/11 02:07:15;;;;;;;6.77;3.07;;;7.80;99.90;;;;;;4936414;29;20230;-82
2023/05/11 02:09:43;;;;;;;4.73;2.93;;;7.70;99.90;;;;;;4992428;28;20207;-77
2023/05/11 02:12:12;;;;;;;5.73;3.07;;;7.70;99.90;;;;;;4995466;28;20203;-78
2023/05/11 02:14:41;;;;;;;4.30;2.77;;;7.70;99.90;;;;;;4996727;28;20207;-82
2023/05/11 02:17:10;;;;;;;5.87;3.10;;;7.60;99.90;;;;;;4996461;28;20291;-80
2023/05/11 02:19:38;;;;;;;5.17;3.10;;;7.60;99.90;;;;;;4997476;28;20235;-79
2023/05/11 02:22:06;;;;;;;4.60;2.80;;;7.50;99.90;;;;;;5015320;28;20189;-79
2023/05/11 02:24:34;;;;;;;6.87;3.10;;;7.50;99.90;;;;;;4996904;28;20210;-82
2023/05/11 02:27:02;;;;;;;5.03;2.83;;;7.50;99.90;;;;;;4995171;28;20212;-77
2023/05/11 02:29:29;;;;;;;4.80;2.80;;;7.50;99.90;;;;;;4995875;28;20196;-80
2023/05/11 02:32:03;;;;;;;5.20;2.70;;;7.40;99.90;;;;;;4997465;28;20219;-78
2023/05/11 02:34:39;;;;;;;3.60;2.80;;;7.40;99.90;;;;;;5012879;28;20200;-80
2023/05/11 02:37:11;;;;;;;6.50;3.17;;;7.40;99.90;;;;;;4996686;28;20695;-78
2023/05/11 02:39:43;;;;;;;4.27;2.70;;;7.40;99.90;;;;;;4997140;28;20278;-79
2023/05/11 02:42:20;;;;;;;5.27;3.00;;;7.30;99.90;;;;;;4997865;28;20228;-80
2023/05/11 02:45:01;;;;;;;8.63;3.47;;;7.30;99.90;;;;;;5013701;28;20295;-79
2023/05/11 02:47:35;;;;;;;6.17;3.10;;;7.30;99.90;;;;;;4998405;28;20200;-79
2023/05/11 02:50:05;;;;;;;5.87;3.07;;;7.20;99.90;;;;;;5013765;28;20720;-80
2023/05/11 02:52:33;;;;;;;4.93;3.10;;;7.20;99.90;;;;;;4997817;28;20207;-79
2023/05/11 02:55:03;;;;;;;3.57;2.80;;;7.30;99.90;;;;;;5013301;28;20216;-80
2023/05/11 02:57:30;;;;;;;4.67;3.17;;;7.10;99.90;;;;;;4995388;28;20246;-81
2023/05/11 02:59:58;;;;;;;6.23;3.33;;;7.20;99.90;;;;;;4995608;28;20251;-79
2023/05/11 03:02:25;;;;;;;6.03;3.37;;;7.10;99.90;;;;;;5013360;28;20706;-79
2023/05/11 03:04:52;;;;;;;5.50;3.33;;;7.10;99.90;;;;;;4995298;28;20239;-79
2023/05/11 03:07:20;;;;;;;5.33;3.33;;;7.00;99.90;;;;;;5013979;28;20539;-79
2023/05/11 03:09:47;;;;;;;6.53;3.30;;;7.00;99.90;;;;;;5014707;28;20231;-79
2023/05/11 03:12:15;;;;;;;5.97;3.43;;;7.00;99.90;;;;;;4997658;28;20650;-80
2023/05/11 03:14:43;;;;;;;6.33;3.30;;;7.00;99.90;;;;;;4994323;28;20212;-79
2023/05/11 03:17:12;;;;;;;5.77;3.40;;;7.00;99.90;;;;;;4996503;28;20557;-79
2023/05/11 03:19:41;;;;;;;6.03;3.30;;;6.90;99.90;;;;;;5012705;28;20316;-81
2023/05/11 03:22:09;;;;;;;6.57;3.60;;;6.90;99.90;;;;;;5013533;28;20242;-80
2023/05/11 03:24:37;;;;;;;5.30;3.40;;;7.00;99.90;;;;;;4995224;28;20204;-80
2023/05/11 03:27:07;;;;;;;6.27;3.53;;;6.90;99.90;;;;;;5012594;28;20200;-77
2023/05/11 03:29:37;;;;;;;5.50;3.33;;;6.90;99.90;;;;;;4994501;28;20669;-79
2023/05/11 03:32:04;;;;;;;4.60;3.20;;;6.90;99.90;;;;;;4994668;28;20302;-80
2023/05/11 03:34:31;;;;;;;7.63;3.20;;;6.90;99.90;;;;;;4994263;28;20201;-82
2023/05/11 03:36:59;;;;;;;9.63;3.43;;;6.90;99.90;;;;;;4995286;28;20286;-82
2023/05/11 03:39:30;;;;;;;8.83;3.40;;;7.00;99.90;;;;;;5012383;28;20275;-82
2023/05/11 03:42:02;;;;;;;4.67;3.57;;;7.00;99.90;;;;;;5012191;28;20206;-80
2023/05/11 03:44:32;;;;;;;7.90;3.50;;;7.00;99.90;;;;;;4995353;28;20626;-75
2023/05/11 03:47:02;;;;;;;5.70;3.30;;;7.00;99.90;;;;;;5012643;28;20570;-77
2023/05/11 03:49:31;;;;;;;6.77;3.40;;;7.10;99.90;;;;;;5012410;28;20184;-76
2023/05/11 03:51:58;;;;;;;6.03;3.27;;;7.10;99.90;;;;;;4995048;28;20215;-80
2023/05/11 03:54:25;;;;;;;7.13;3.17;;;7.20;99.90;;;;;;4996338;28;20228;-82
2023/05/11 03:56:52;;;;;;;9.87;3.10;;;7.20;99.90;;;;;;4994573;28;20200;-78
2023/05/11 03:59:20;;;;;;;6.63;3.33;;;7.20;99.90;;;;;;5012826;28;20227;-81
2023/05/11 04:01:51;;;;;;;5.70;3.30;;;7.30;99.90;;;;;;5012340;28;20214;-79
2023/05/11 04:04:20;;;;;;;5.07;3.20;;;7.40;99.90;;;;;;5012778;28;20283;-81
2023/05/11 04:06:47;;;;;;;7.53;3.40;;;7.30;99.90;;;;;;5002867;28;20235;-75
2023/05/11 04:09:14;;;;;;;8.53;3.30;;;7.40;99.90;;;;;;4994587;28;20204;-81
2023/05/11 04:11:41;;;;;;;8.50;3.50;;;7.50;99.90;;;;;;4996599;28;20196;-80
2023/05/11 04:14:08;;;;;;;7.03;3.50;;;7.50;99.90;;;;;;5011987;28;20203;-79
2023/05/11 04:16:35;;;;;;;6.57;3.23;;;7.50;99.90;;;;;;5002163;28;20207;-80
2023/05/11 04:19:03;;;;;;;7.07;3.40;;;7.60;99.90;;;;;;4995775;28;20219;-83
2023/05/11 04:21:31;;;;;;;7.20;3.70;;;7.60;99.90;;;;;;4996340;28;20643;-84
2023/05/11 04:23:58;;;;;;;7.27;3.50;;;7.70;99.90;;;;;;4994623;28;20200;-83
2023/05/11 04:26:25;;;;;;;6.00;3.20;;;7.80;99.90;;;;;;5017428;28;20192;-78
2023/05/11 04:28:52;;;;;;;6.73;3.10;;;7.80;99.90;;;;;;4999525;28;20204;-83
2023/05/11 04:31:19;;;;;;;6.97;3.60;;;8.00;99.90;;;;;;4981908;28;20203;-82
2023/05/11 04:33:47;;;;;;;6.93;3.30;;;8.00;99.90;;;;;;4997611;28;20193;-82
2023/05/11 04:36:14;;;;;;;7.57;3.40;;;8.10;99.90;;;;;;4998240;28;20561;-82
2023/05/11 04:38:41;;;;;;;6.40;2.90;;;8.20;99.90;;;;;;4998538;28;20203;-81
2023/05/11 04:41:08;;;;;;;4.63;3.17;;;8.20;99.90;;;;;;4998443;28;20300;-80
2023/05/11 04:43:35;;;;;;;7.93;2.90;;;8.30;99.90;;;;;;5015282;28;20283;-80
2023/05/11 04:46:02;;;;;;;6.50;3.03;;;8.40;99.90;;;;;;5000880;28;20204;-81
2023/05/11 04:48:29;;;;;;;7.17;3.17;;;8.40;99.90;;;;;;5015471;28;20198;-83
2023/05/11 04:50:56;;;;;;;5.00;2.80;;;8.50;99.90;;;;;;4997813;28;20673;-84
2023/05/11 04:53:23;;;;;;;6.33;3.20;;;8.60;99.90;;;;;;4997581;28;20255;-83
2023/05/11 04:55:50;;;;;;;6.93;2.97;;;8.70;99.90;;;;;;4997261;28;20318;-83
2023/05/11 04:58:17;;;;;;;6.50;3.10;;;8.90;99.90;;;;;;5015186;28;20199;-82
2023/05/11 05:00:44;;;;;;;5.27;2.90;;;9.00;99.90;;;;;;5015971;28;20219;-80
2023/05/11 05:03:11;;;;;;;5.93;3.33;;;9.20;99.90;;;;;;4998459;28;20200;-80
2023/05/11 05:05:38;;;;;;;7.00;3.20;;;9.30;99.90;;;;;;4997458;28;20279;-78
2023/05/11 05:08:06;;;;;;;7.43;3.07;;;9.50;99.90;;;;;;5014020;28;20192;-75
2023/05/11 05:10:33;;;;;;;4.77;3.00;;;9.50;99.90;;;;;;4997038;28;20232;-78
2023/05/11 05:13:00;;;;;;;6.57;3.00;;;9.70;99.90;;;;;;4980691;28;20279;-81
2023/05/11 05:15:27;;;;;;;4.73;3.27;;;9.60;99.90;;;;;;4997094;28;20242;-80
2023/05/11 05:17:53;;;;;;;5.33;3.13;;;9.60;99.90;;;;;;4996886;28;20243;-80
2023/05/11 05:20:20;;;;;;;4.87;3.00;;;9.70;99.90;;;;;;5014790;28;20688;-80
2023/05/11 05:22:47;;;;;;;6.00;2.60;;;9.90;99.90;;;;;;4996543;28;20299;-80
2023/05/11 05:25:14;;;;;;;8.17;3.07;;;9.90;99.90;;;;;;5014662;28;20579;-82
2023/05/11 05:27:41;;;;;;;4.53;2.80;;;10.00;99.90;;;;;;4998751;28;20719;-81
2023/05/11 05:30:08;;;;;;;6.57;2.80;;;10.00;99.90;;;;;;4996618;28;20299;-79
2023/05/11 05:32:35;;;;;;;7.40;2.93;;;10.00;99.90;;;;;;5014210;28;20192;-81
2023/05/11 05:35:02;;;;;;;4.70;2.67;;;10.20;99.90;;;;;;4996606;28;20200;-76
2023/05/11 05:37:29;;;;;;;6.73;3.20;;;10.30;99.90;;;;;;4995704;28;20234;-79
2023/05/11 05:39:56;;;;;;;4.17;2.40;;;10.40;99.90;;;;;;4996878;28;20575;-80
2023/05/11 05:42:23;;;;;;;8.17;2.57;;;10.50;99.90;;;;;;4996252;28;20310;-80
2023/05/11 05:44:51;;;;;;;5.03;2.50;;;10.60;99.90;;;;;;5014386;28;20206;-76
2023/05/11 05:47:18;;;;;;;4.37;2.60;;;10.80;99.90;;;;;;4980695;28;20560;-74
2023/05/11 05:49:44;;;;;;;4.37;2.70;;;10.90;99.90;;;;;;4995977;28;20208;-75
2023/05/11 05:52:11;;;;;;;5.73;2.60;;;10.90;99.90;;;;;;4995629;28;20287;-76
2023/05/11 05:54:38;;;;;;;4.27;2.70;;;11.00;99.90;;;;;;4995796;28;20323;-80
2023/05/11 05:57:05;;;;;;;9.50;2.80;;;11.10;99.90;;;;;;4996398;28;20204;-74
2023/05/11 05:59:32;;;;;;;7.17;2.70;;;11.30;99.90;;;;;;4997394;28;20314;-76
2023/05/11 06:01:59;;;;;;;4.27;2.70;;;11.30;99.90;;;;;;4996150;28;20192;-78
2023/05/11 06:04:26;;;;;;;5.47;2.40;;;11.40;99.90;;;;;;4996104;28;20214;-80
2023/05/11 06:06:54;;;;;;;6.97;2.80;;;11.50;99.90;;;;;;4995671;28;20243;-78
2023/05/11 06:09:21;;;;;;;7.13;2.60;;;11.60;99.90;;;;;;4995421;28;20200;-81
2023/05/11 06:11:48;;;;;;;4.97;2.50;;;11.70;99.90;;;;;;4978868;28;20196;-79
2023/05/11 06:14:15;;;;;;;5.90;2.50;;;11.80;99.90;;;;;;4994950;28;20211;-78
2023/05/11 06:16:42;;;;;;;5.37;2.67;;;11.90;99.90;;;;;;5013048;28;20192;-79
2023/05/11 06:19:09;;;;;;;5.00;2.70;;;12.00;98.70;;;;;;5012739;28;20207;-80
2023/05/11 06:21:36;;;;;;;4.80;2.50;;;12.20;98.20;;;;;;4996377;28;20199;-79
2023/05/11 06:24:03;;;;;;;6.87;2.50;;;12.10;98.10;;;;;;4995403;28;20295;-79
2023/05/11 06:26:30;;;;;;;4.17;2.67;;;12.30;97.40;;;;;;5012010;28;20206;-77
2023/05/11 06:28:57;;;;;;;4.77;2.30;;;12.40;97.60;;;;;;4994871;28;20233;-80
2023/05/11 06:31:24;;;;;;;5.93;2.40;;;12.60;98.00;;;;;;4995855;28;20203;-76
2023/05/11 06:33:51;;;;;;;4.57;2.43;;;12.70;96.50;;;;;;5012946;28;20271;-80
2023/05/11 06:36:18;;;;;;;6.43;2.60;;;12.80;96.40;;;;;;4993930;28;20262;-79
2023/05/11 06:38:45;;;;;;;3.30;2.30;;;12.80;95.00;;;;;;5012502;28;20282;-78
2023/05/11 06:41:12;;;;;;;4.40;2.30;;;12.90;96.10;;;;;;4978991;28;20339;-78
2023/05/11 06:43:38;;;;;;;4.37;2.13;;;13.10;94.80;;;;;;4996120;28;20206;-78
2023/05/11 06:46:05;;;;;;;6.20;2.30;;;13.30;93.70;;;;;;5012443;28;20287;-80
2023/05/11 06:48:32;;;;;;;4.23;2.43;;;13.40;93.00;;;;;;4994721;28;20196;-80
2023/05/11 06:51:00;;;;;;;6.03;2.30;;;13.50;92.40;;;;;;4995260;28;20215;-79
2023/05/11 06:53:27;;;;;;;3.83;2.43;;;13.60;91.90;;;;;;4991820;28;20212;-77
2023/05/11 06:55:55;;;;;;;3.57;2.30;;;13.60;90.50;;;;;;4983583;28;20201;-79
2023/05/11 06:58:22;;;;;;;2.33;1.90;;;13.70;90.10;;;;;;4984644;28;20993;-78
2023/05/11 07:00:48;;;;;;;2.93;2.00;;;13.80;90.00;;;;;;4994588;28;20306;-79
2023/05/11 07:03:16;;;;;;;3.17;1.90;;;14.00;85.90;;;;;;4979885;28;20251;-77
2023/05/11 07:05:43;;;;;;;3.90;2.17;;;14.00;84.10;;;;;;4974766;28;20319;-78
2023/05/11 07:08:10;;;;;;;6.70;2.17;;;14.10;84.00;;;;;;4975003;28;20201;-76
2023/05/11 07:10:37;;;;;;;3.57;2.53;;;14.40;84.60;;;;;;4979704;28;20640;-75
2023/05/11 07:13:04;;;;;;;5.00;2.13;;;14.50;85.90;;;;;;4994334;28;20298;-78
2023/05/11 07:15:31;;;;;;;3.93;2.07;;;14.60;80.20;;;;;;4994610;28;20204;-75
2023/05/11 07:18:00;;;;;;;3.63;2.03;;;14.70;80.60;;;;;;4995048;28;20188;-73
2023/05/11 07:20:27;;;;;;;2.87;1.80;;;14.80;77.10;;;;;;4977653;28;20282;-77
2023/05/11 07:22:58;;;;;;;5.10;2.07;;;14.80;76.60;;;;;;4994529;28;20214;-78
2023/05/11 07:25:25;;;;;;;6.00;1.90;;;15.00;75.70;;;;;;4994291;28;20224;-77
2023/05/11 07:27:52;;;;;;;2.87;1.80;;;15.10;70.80;;;;;;5012361;28;20192;-72
2023/05/11 07:30:19;;;;;;;10.83;1.80;;;15.20;70.00;;;;;;4994100;28;20195;-74
2023/05/11 07:32:47;;;;;;;7.43;1.90;;;15.20;68.00;;;;;;5010372;28;20568;-76
2023/05/11 07:35:14;;;;;;;2.93;1.97;;;15.20;67.10;;;;;;5010720;28;20196;-76
2023/05/11 07:37:41;;;;;;;3.80;1.93;;;15.30;67.40;;;;;;5010212;28;20200;-74
2023/05/11 07:40:08;;;;;;;5.87;2.00;;;15.30;67.10;;;;;;5010358;28;20224;-76
2023/05/11 07:42:35;;;;;;;4.30;2.00;;;15.30;68.50;;;;;;4992803;28;20524;-73
2023/05/11 07:45:03;;;;;;;5.33;2.00;;;15.50;67.80;;;;;;4994034;28;20208;-78
2023/05/11 07:47:30;;;;;;;4.97;2.00;;;15.60;69.90;;;;;;5010496;28;20200;-77
2023/05/11 07:50:01;;;;;;;3.63;2.03;;;15.60;69.70;;;;;;4994278;28;20223;-77
2023/05/11 07:52:28;;;;;;;4.80;2.17;;;15.70;69.20;;;;;;4994448;28;20218;-78
2023/05/11 07:54:55;;;;;;;3.00;1.80;;;15.80;68.70;;;;;;4994027;28;20248;-75
2023/05/11 07:57:22;;;;;;;4.30;1.97;;;15.90;68.70;;;;;;4994308;28;20207;-82
2023/05/11 07:59:49;;;;;;;4.53;1.83;;;16.00;69.30;;;;;;4995289;28;20698;-71
2023/05/11 08:02:17;;;;;;;4.57;2.00;;;16.10;67.50;;;;;;4986883;28;20210;-77
2023/05/11 08:04:45;;;;;;;4.07;2.13;;;16.10;67.80;;;;;;5007908;28;20217;-72
2023/05/11 08:07:12;;;;;;;3.23;1.83;;;16.20;68.60;;;;;;4978205;28;20233;-72
2023/05/11 08:09:39;;;;;;;3.53;1.60;;;16.30;67.30;;;;;;4990029;28;20196;-71
2023/05/11 08:12:06;;;;;;;2.80;1.73;;;16.90;63.20;;;;;;5014049;28;20555;-72
2023/05/11 08:14:33;;;;;;;4.07;1.70;;;17.70;57.50;;;;;;5014021;28;20290;-70
2023/05/11 08:17:00;;;;;;;5.73;1.50;;;18.40;54.40;;;;;;4994558;28;20227;-69
2023/05/11 08:19:27;;;;;;;4.37;2.10;;;18.60;53.40;;;;;;4978072;28;20247;-71
2023/05/11 08:21:54;;;;;;;3.13;1.73;;;18.90;52.90;;;;;;4995734;28;20704;-73
2023/05/11 08:24:21;;;;;;;6.37;1.93;;;19.00;52.20;;;;;;4978124;28;20201;-70
2023/05/11 08:26:48;;;;;;;6.33;2.33;;;19.50;53.80;;;;;;4977865;28;20201;-79
2023/05/11 08:29:15;;;;;;;2.67;1.77;;;19.90;52.60;;;;;;4978101;28;20630;-83
2023/05/11 08:31:42;;;;;;;4.90;2.07;;;20.30;51.50;;;;;;4961719;28;20625;-78
2023/05/11 08:34:10;;;;;;;3.10;2.10;;;20.30;51.60;;;;;;4980631;28;20195;-77
2023/05/11 08:36:45;;;;;;;4.70;2.25;;;20.50;51.90;;;;;;5014767;28;20218;-75
2023/05/11 08:39:12;;;;;;;5.33;2.20;;;20.80;50.50;;;;;;4996935;28;20279;-75
2023/05/11 08:41:39;;;;;;;5.13;1.90;;;20.50;50.10;;;;;;4980699;28;20750;-76
2023/05/11 08:44:07;;;;;;;3.67;1.83;;;21.00;48.90;;;;;;4996921;28;20693;-76
2023/05/11 08:46:38;;;;;;;2.90;2.05;;;20.90;48.90;;;;;;5014630;28;20220;-75
2023/05/11 08:49:07;;;;;;;6.23;2.20;;;20.70;49.40;;;;;;5014075;28;20279;-79
2023/05/11 08:51:34;;;;;;;3.80;1.80;;;20.70;50.00;;;;;;5014773;28;20196;-73
2023/05/11 08:54:02;;;;;;;4.90;2.03;;;21.10;48.80;;;;;;5014292;28;20292;-75
2023/05/11 08:56:30;;;;;;;4.28;2.30;;;21.40;48.70;;;;;;4980700;28;20192;-72
2023/05/11 08:58:57;;;;;;;5.30;2.03;;;21.20;49.10;;;;;;4996682;28;20638;-72
2023/05/11 09:01:27;;;;;;;2.37;2.00;;;21.20;48.10;;;;;;5014220;28;20216;-76
2023/05/11 09:03:57;;;;;;;3.10;1.87;;;21.40;48.70;;;;;;5014471;28;20224;-73
2023/05/11 09:06:25;;;;;;;4.45;2.15;;;21.30;48.20;;;;;;5014013;28;20577;-74
2023/05/11 09:08:53;;;;;;;2.85;1.88;;;21.40;48.00;;;;;;5007823;28;20198;-72
2023/05/11 09:11:21;;;;;;;5.90;2.05;;;21.60;47.30;;;;;;5011582;28;20200;-73
2023/05/11 09:13:48;;;;;;;2.75;1.92;;;21.70;47.60;;;;;;4996401;28;20225;-72
2023/05/11 09:16:15;;;;;;;2.87;2.03;;;21.70;47.40;;;;;;5014083;28;20192;-72
2023/05/11 09:19:02;;;;;;;3.97;1.90;;;21.90;48.20;;;;;;4996322;28;20200;-74
2023/05/11 09:21:30;;;;;;;3.70;1.80;;;22.20;47.60;;;;;;4996255;28;20224;-74
2023/05/11 09:23:58;;;;;;;3.92;1.80;;;21.90;47.40;;;;;;5014013;28;20206;-75
2023/05/11 09:26:27;;;;;;;3.77;1.70;;;21.60;47.80;;;;;;5013604;28;20200;-74
2023/05/11 09:28:57;;;;;;;2.57;1.80;;;21.30;47.90;;;;;;5012043;28;20254;-73
2023/05/11 09:31:40;;;;;;;4.70;1.77;;;21.40;49.20;;;;;;4995794;28;20203;-76
2023/05/11 09:34:18;;;;;;;3.53;1.93;;;21.50;47.50;;;;;;5013646;28;20199;-75
2023/05/11 09:36:47;;;;;;;2.77;1.90;;;21.50;47.90;;;;;;4996274;28;20196;-72
2023/05/11 09:39:30;;;;;;;3.00;1.80;;;21.80;48.00;;;;;;4995858;28;20307;-72
2023/05/11 09:42:19;;;;;;;3.03;1.90;;;22.20;46.70;;;;;;4995715;28;20270;-74
2023/05/11 09:44:47;;;;;;;6.72;2.05;;;21.90;47.50;;;;;;4979423;28;20283;-74
2023/05/11 09:47:16;;;;;;;3.03;1.73;;;22.20;46.40;;;;;;5015089;28;20198;-76
2023/05/11 09:49:45;;;;;;;3.95;2.05;;;22.50;46.90;;;;;;4995990;28;20569;-76
2023/05/11 09:52:17;;;;;;;5.25;2.03;;;22.70;45.10;;;;;;4980094;28;20222;-75
2023/05/11 09:54:46;;;;;;;4.47;1.80;;;22.90;44.20;;;;;;5012884;28;20331;-72
2023/05/11 09:57:28;;;;;;;3.53;2.25;;;22.80;44.40;;;;;;4995791;28;20228;-72
2023/05/11 09:59:57;;;;;;;4.47;1.92;;;23.10;43.40;;;;;;4995535;28;20254;-72
2023/05/11 10:02:29;;;;;;;2.65;1.90;;;22.90;43.10;;;;;;5013018;28;20192;-76
2023/05/11 10:04:59;;;;;;;5.70;2.00;;;23.10;43.80;;;;;;4995778;28;20893;-74
2023/05/11 10:07:36;;;;;;;5.45;2.10;;;23.30;44.80;;;;;;5013358;28;20220;-74
2023/05/11 10:10:07;;;;;;;4.57;2.05;;;23.40;43.00;;;;;;4978338;28;20196;-75
2023/05/11 10:12:39;;;;;;;4.68;2.00;;;23.40;42.60;;;;;;4993934;28;20339;-76
2023/05/11 10:15:08;;;;;;;3.40;1.90;;;23.60;42.00;;;;;;4976557;28;20209;-73
2023/05/11 10:17:36;;;;;;;2.35;1.90;;;23.70;41.80;;;;;;4993461;28;20197;-72
2023/05/11 10:20:05;;;;;;;2.95;1.70;;;23.80;42.50;;;;;;4975723;28;20204;-75
2023/05/11 10:22:32;;;;;;;3.03;1.98;;;23.70;42.60;;;;;;4975455;28;20204;-75
2023/05/11 10:25:02;;;;;;;3.22;2.05;;;24.00;43.10;;;;;;4975578;28;20984;-75
2023/05/11 10:27:30;;;;;;;3.88;2.10;;;24.40;43.30;;;;;;4975466;28;20200;-74
2023/05/11 10:29:58;;;;;;;6.43;2.22;;;24.80;42.20;;;;;;4975602;28;20204;-75
2023/05/11 10:32:26;;;;;;;4.90;2.17;;;24.90;40.90;;;;;;4993197;28;20189;-75
2023/05/11 10:34:55;;;;;;;4.65;2.30;;;24.50;41.90;;;;;;4975637;28;20296;-75
2023/05/11 10:37:23;;;;;;;3.38;2.08;;;24.90;42.40;;;;;;4975520;28;20295;-78
2023/05/11 10:39:50;;;;;;;3.33;2.10;;;25.00;41.80;;;;;;4975562;28;20199;-76
2023/05/11 10:42:23;;;;;;;22.52;2.53;;;25.10;41.20;;;;;;4992706;28;20320;-80
2023/05/11 10:45:05;;;;;;;3.83;1.90;;;25.30;40.70;;;;;;4975318;28;20199;-78
2023/05/11 10:48:06;;;;;;;3.70;2.10;;;25.20;41.50;;;;;;4976040;28;20197;-78
2023/05/11 10:51:18;;;;;;;11.00;2.38;;;25.20;40.90;;;;;;4975460;28;20189;-72
2023/05/11 10:53:53;;;;;;;3.08;2.17;;;25.30;40.80;;;;;;4932575;29;20229;-74
2023/05/11 10:56:38;;;;;;;2.70;2.10;;;25.20;41.20;;;;;;4932097;29;20653;-72
2023/05/11 10:59:34;;;;;;;2.67;1.90;;;25.60;41.00;;;;;;4915824;29;20233;-74
2023/05/11 11:02:02;;;;;;;3.80;1.80;;;25.40;40.60;;;;;;4879163;29;20255;-73
2023/05/11 11:04:50;;;;;;;3.17;2.08;;;25.10;40.10;;;;;;4894355;29;20238;-74
2023/05/11 11:07:18;;;;;;;2.92;1.95;;;25.00;40.50;;;;;;4878364;29;20247;-75
2023/05/11 11:09:55;;;;;;;3.28;1.90;;;25.30;41.00;;;;;;4910524;29;20235;-73
2023/05/11 11:12:26;;;;;;;2.42;1.90;;;25.20;40.50;;;;;;4882040;29;20616;-73
2023/05/11 11:15:01;;;;;;;2.95;2.08;;;25.70;41.00;;;;;;4897708;29;20243;-72
2023/05/11 11:17:30;;;;;;;4.72;2.15;;;25.90;39.90;;;;;;4898088;29;20290;-76
2023/05/11 11:20:03;;;;;;;3.35;2.08;;;26.20;40.00;;;;;;4897262;29;20658;-71
2023/05/11 11:25:04;;;;;;;3.85;2.25;;;26.50;39.60;;;;;;4912622;29;20374;-75
2023/05/11 11:27:40;;;;;;;3.67;1.90;;;26.90;39.40;;;;;;4912871;29;20203;-75
2023/05/11 11:30:29;;;;;;;3.17;2.17;;;27.30;38.80;;;;;;4921547;28;20680;-71
2023/05/11 11:33:11;;;;;;;4.20;2.20;;;26.60;39.00;;;;;;4954165;28;20696;-74
2023/05/11 11:35:38;;;;;;;3.40;1.83;;;26.70;40.10;;;;;;4951654;28;20308;-71
2023/05/11 11:38:08;;;;;;;4.70;2.25;;;26.90;39.50;;;;;;4984188;28;20258;-74
2023/05/11 11:40:46;;;;;;;4.28;2.20;;;27.30;38.80;;;;;;5008318;28;20780;-73
2023/05/11 11:43:21;;;;;;;4.25;2.08;;;27.20;38.80;;;;;;4994854;28;20200;-73
2023/05/11 11:46:01;;;;;;;3.38;2.20;;;27.30;39.00;;;;;;4994471;28;20200;-74
2023/05/11 11:48:40;;;;;;;4.57;2.20;;;27.20;39.50;;;;;;5012246;28;20192;-73
2023/05/11 11:51:09;;;;;;;4.55;2.20;;;27.60;38.70;;;;;;4994498;28;20489;-75
2023/05/11 11:53:36;;;;;;;5.47;2.15;;;28.10;38.20;;;;;;4994383;28;20252;-76
2023/05/11 11:56:14;;;;;;;5.45;2.80;;;28.40;37.60;;;;;;5012081;28;20234;-75
2023/05/11 11:58:41;;;;;;;4.57;2.13;;;28.60;38.30;;;;;;5012203;28;20196;-74
2023/05/11 12:01:11;;;;;;;6.53;2.50;;;28.60;38.30;;;;;;5012395;28;20558;-73
2023/05/11 12:03:42;;;;;;;5.03;2.70;;;28.40;37.90;;;;;;4978563;28;20256;-75
2023/05/11 12:06:10;;;;;;;5.90;2.50;;;27.70;38.40;;;;;;4994750;28;20286;-75
2023/05/11 12:08:39;;;;;;;14.20;2.50;;;27.60;38.10;;;;;;4994574;28;20536;-74
2023/05/11 12:11:07;;;;;;;3.25;2.17;;;27.60;38.00;;;;;;4994555;28;20211;-78
2023/05/11 12:13:34;;;;;;;5.97;2.10;;;27.10;39.40;;;;;;4993272;28;20425;-72
2023/05/11 12:16:08;;;;;;;3.80;2.03;;;27.40;39.10;;;;;;4978333;28;20204;-79
2023/05/11 12:18:35;;;;;;;4.35;2.30;;;27.10;38.70;;;;;;5011938;28;20192;-71
2023/05/11 12:21:02;;;;;;;4.40;2.08;;;27.40;38.70;;;;;;4994295;28;20220;-71
2023/05/11 12:23:30;;;;;;;3.67;2.22;;;27.40;38.90;;;;;;4994259;28;20197;-73
2023/05/11 12:26:05;;;;;;;4.53;2.30;;;27.70;38.60;;;;;;4994533;28;20214;-72
2023/05/11 12:28:32;;;;;;;3.42;2.40;;;27.50;37.60;;;;;;5011668;28;20278;-72
2023/05/11 12:31:00;;;;;;;5.20;2.42;;;27.10;38.00;;;;;;5011785;28;20220;-71
2023/05/11 12:33:27;;;;;;;2.85;2.20;;;26.60;38.90;;;;;;4994082;28;20633;-73
2023/05/11 12:35:56;;;;;;;4.90;2.20;;;27.10;39.70;;;;;;4994150;28;20207;-71
2023/05/11 12:38:22;;;;;;;4.75;2.38;;;27.90;39.40;;;;;;5011772;28;20259;-71
2023/05/11 12:40:52;;;;;;;4.88;2.13;;;28.60;38.50;;;;;;4993669;28;20291;-72
2023/05/11 12:43:21;;;;;;;4.82;2.25;;;29.20;38.80;;;;;;4998740;28;20196;-85
2023/05/11 12:45:49;;;;;;;5.35;2.47;;;29.30;37.40;;;;;;5022775;28;20192;-87
2023/05/11 12:48:17;;;;;;;2.88;2.20;;;28.90;37.30;;;;;;5002601;28;20626;-82
2023/05/11 12:50:45;;;;;;;3.28;2.13;;;29.00;37.70;;;;;;4983283;28;20327;-68
2023/05/11 12:53:17;;;;;;;6.90;2.72;;;28.80;37.80;;;;;;5015221;28;20226;-72
2023/05/11 12:55:56;;;;;;;2.85;2.20;;;29.00;38.20;;;;;;5014877;28;20262;-75
2023/05/11 12:58:34;;;;;;;3.42;2.10;;;28.80;37.40;;;;;;5013708;28;20611;-75
2023/05/11 13:01:01;;;;;;;4.00;2.30;;;27.50;36.60;;;;;;4998024;28;20242;-74
2023/05/11 13:03:29;;;;;;;4.22;2.45;;;26.80;38.00;;;;;;4997335;28;20223;-73
2023/05/11 13:06:08;;;;;;;4.72;2.38;;;27.50;38.30;;;;;;4997112;28;20711;-71